Disclaimer

Please do not use the information listed here in-flight or in-navigation, as they are not provided to us by the airports but are provided by volunteers, so they might be outdated.

Search


Regions


Airport information page

Radio informations:
Tower (TWR) - 119.1 MHz
Tower (TWR) - 121.8 MHz
Tower (TWR) - 119.1 MHz

Airport informations:
Latitude: 30° 12' 11.60" N
Longitude: 071° 25' 08.80" E
Elevation: 403 feet - 123 meters
Operating hours: Remarks
Operating agency: Civil government, landing fees and diplomatic clearance may be required
Timezone: UTC+5
Fuel: Aviation Gasoline (AVGAS), octane unknown.

Runway information:
18/36 - 9046 x 98 feet< - >2757 x 30 meters

Recent METARs:
OPMT 201600Z 00000KT 4000 FU NSC 20/13 Q1017 NOSIG
OPMT 201700Z 00000KT 4000 FU NSC 19/13 Q1017 NOSIG
OPMT 201730Z 00000KT 4000 FU NSC 18/13 Q1017 NOSIG

Airport on the map: